Fort Lewis, Washington
Current Conditions -  °F | °C
As of 9:18 PM on Saturday 25 Oct 2014 (Local Time) from KGRF Reporting Station
Moderate Rain Moderate Rain  
Wind Chill: 52°   Ceiling: 3300
Heat Index: 52°   Visibility: 10mi
Dew Point: 50°   Wind: 18mph
Humidity: 94%   Direction: 170°S
Pressure: 29.66"   Gusts: 23mph
Location:  47.04°N, 122.6°W
Report Text: KGRF 260418Z AUTO 17016G20KT 10SM RA SCT025 OVC033 11/10 A2966 RMK AO2
Loading
Personal Weather Stations






























Interactive Weather Map
Tropical Storm Tracking
New forecast layout! Learn more

10-Day Weather Forecast

Advertisements
Track Severe Weather on mobile